sensor_id;sensor_type;location;lat;lon;timestamp;P1;durP1;ratioP1;P2;durP2;ratioP2
51358;SDS011;37448;51.588;7.248;2024-01-30T00:00:48;10.85;;;5.65;;
51358;SDS011;37448;51.588;7.248;2024-01-30T00:02:48;9.82;;;5.05;;
51358;SDS011;37448;51.588;7.248;2024-01-30T00:04:49;9.50;;;5.75;;
51358;SDS011;37448;51.588;7.248;2024-01-30T00:06:50;11.38;;;5.22;;
51358;SDS011;37448;51.588;7.248;2024-01-30T00:08:51;8.93;;;5.10;;
51358;SDS011;37448;51.588;7.248;2024-01-30T00:10:51;8.25;;;5.03;;
51358;SDS011;37448;51.588;7.248;2024-01-30T00:12:52;10.43;;;5.20;;
51358;SDS011;37448;51.588;7.248;2024-01-30T00:14:52;8.02;;;5.47;;
51358;SDS011;37448;51.588;7.248;2024-01-30T00:16:53;10.23;;;5.32;;
51358;SDS011;37448;51.588;7.248;2024-01-30T00:18:53;8.80;;;4.85;;
51358;SDS011;37448;51.588;7.248;2024-01-30T00:20:54;11.07;;;5.68;;
51358;SDS011;37448;51.588;7.248;2024-01-30T00:22:54;7.43;;;4.95;;
51358;SDS011;37448;51.588;7.248;2024-01-30T00:24:54;7.68;;;5.05;;
51358;SDS011;37448;51.588;7.248;2024-01-30T00:26:55;9.30;;;4.32;;
51358;SDS011;37448;51.588;7.248;2024-01-30T00:28:55;8.23;;;4.63;;
51358;SDS011;37448;51.588;7.248;2024-01-30T00:30:56;7.65;;;5.30;;
51358;SDS011;37448;51.588;7.248;2024-01-30T00:32:56;9.15;;;5.10;;
51358;SDS011;37448;51.588;7.248;2024-01-30T00:34:57;10.93;;;5.32;;
51358;SDS011;37448;51.588;7.248;2024-01-30T00:36:57;10.35;;;5.47;;
51358;SDS011;37448;51.588;7.248;2024-01-30T00:38:57;10.13;;;5.43;;
51358;SDS011;37448;51.588;7.248;2024-01-30T00:40:58;15.63;;;7.63;;
51358;SDS011;37448;51.588;7.248;2024-01-30T00:42:58;11.25;;;5.95;;
51358;SDS011;37448;51.588;7.248;2024-01-30T00:44:58;12.60;;;6.95;;
51358;SDS011;37448;51.588;7.248;2024-01-30T00:46:59;12.35;;;6.18;;
51358;SDS011;37448;51.588;7.248;2024-01-30T00:48:59;10.80;;;6.10;;
51358;SDS011;37448;51.588;7.248;2024-01-30T00:50:59;9.63;;;6.38;;
51358;SDS011;37448;51.588;7.248;2024-01-30T00:53:00;12.18;;;6.95;;
51358;SDS011;37448;51.588;7.248;2024-01-30T00:55:00;12.13;;;6.60;;
51358;SDS011;37448;51.588;7.248;2024-01-30T00:57:01;10.63;;;5.78;;
51358;SDS011;37448;51.588;7.248;2024-01-30T00:59:02;11.75;;;5.97;;
51358;SDS011;37448;51.588;7.248;2024-01-30T01:01:02;9.23;;;6.15;;
51358;SDS011;37448;51.588;7.248;2024-01-30T01:03:03;15.77;;;6.38;;
51358;SDS011;37448;51.588;7.248;2024-01-30T01:05:03;9.65;;;6.25;;
51358;SDS011;37448;51.588;7.248;2024-01-30T01:07:04;13.27;;;6.35;;
51358;SDS011;37448;51.588;7.248;2024-01-30T01:09:05;8.50;;;6.13;;
51358;SDS011;37448;51.588;7.248;2024-01-30T01:11:05;9.07;;;6.28;;
51358;SDS011;37448;51.588;7.248;2024-01-30T01:13:06;10.13;;;6.22;;
51358;SDS011;37448;51.588;7.248;2024-01-30T01:15:06;10.93;;;6.53;;
51358;SDS011;37448;51.588;7.248;2024-01-30T01:17:09;12.30;;;6.35;;
51358;SDS011;37448;51.588;7.248;2024-01-30T01:19:10;11.25;;;6.45;;
51358;SDS011;37448;51.588;7.248;2024-01-30T01:21:10;10.75;;;6.30;;
51358;SDS011;37448;51.588;7.248;2024-01-30T01:23:11;13.48;;;6.70;;
51358;SDS011;37448;51.588;7.248;2024-01-30T01:25:11;12.52;;;6.45;;
51358;SDS011;37448;51.588;7.248;2024-01-30T01:27:11;12.18;;;6.28;;
51358;SDS011;37448;51.588;7.248;2024-01-30T01:29:12;15.50;;;7.03;;
51358;SDS011;37448;51.588;7.248;2024-01-30T01:31:12;10.18;;;6.22;;
51358;SDS011;37448;51.588;7.248;2024-01-30T01:33:12;9.90;;;5.82;;
51358;SDS011;37448;51.588;7.248;2024-01-30T01:35:14;9.05;;;6.10;;
51358;SDS011;37448;51.588;7.248;2024-01-30T01:37:14;10.52;;;5.78;;
51358;SDS011;37448;51.588;7.248;2024-01-30T01:39:15;10.68;;;6.18;;
51358;SDS011;37448;51.588;7.248;2024-01-30T01:41:15;10.40;;;6.18;;
51358;SDS011;37448;51.588;7.248;2024-01-30T01:43:16;12.63;;;6.43;;
51358;SDS011;37448;51.588;7.248;2024-01-30T01:45:16;11.05;;;5.70;;
51358;SDS011;37448;51.588;7.248;2024-01-30T01:47:16;9.23;;;5.05;;
51358;SDS011;37448;51.588;7.248;2024-01-30T01:49:17;10.75;;;5.55;;
51358;SDS011;37448;51.588;7.248;2024-01-30T01:51:19;11.38;;;6.13;;
51358;SDS011;37448;51.588;7.248;2024-01-30T01:53:20;9.93;;;6.00;;
51358;SDS011;37448;51.588;7.248;2024-01-30T01:55:20;9.65;;;6.18;;
51358;SDS011;37448;51.588;7.248;2024-01-30T01:57:22;8.98;;;5.28;;
51358;SDS011;37448;51.588;7.248;2024-01-30T01:59:22;9.35;;;5.93;;
51358;SDS011;37448;51.588;7.248;2024-01-30T02:01:24;11.43;;;5.63;;
51358;SDS011;37448;51.588;7.248;2024-01-30T02:03:26;11.43;;;6.00;;
51358;SDS011;37448;51.588;7.248;2024-01-30T02:05:26;9.07;;;5.80;;
51358;SDS011;37448;51.588;7.248;2024-01-30T02:07:27;10.68;;;6.45;;
51358;SDS011;37448;51.588;7.248;2024-01-30T02:09:28;10.13;;;6.05;;
51358;SDS011;37448;51.588;7.248;2024-01-30T02:11:28;11.23;;;6.78;;
51358;SDS011;37448;51.588;7.248;2024-01-30T02:13:29;9.93;;;6.32;;
51358;SDS011;37448;51.588;7.248;2024-01-30T02:15:29;10.93;;;6.45;;
51358;SDS011;37448;51.588;7.248;2024-01-30T02:17:29;11.98;;;6.18;;
51358;SDS011;37448;51.588;7.248;2024-01-30T02:19:30;11.50;;;5.95;;
51358;SDS011;37448;51.588;7.248;2024-01-30T02:21:30;12.20;;;6.60;;
51358;SDS011;37448;51.588;7.248;2024-01-30T02:23:30;9.98;;;6.13;;
51358;SDS011;37448;51.588;7.248;2024-01-30T02:25:35;11.60;;;6.03;;
51358;SDS011;37448;51.588;7.248;2024-01-30T02:27:38;12.00;;;6.95;;
51358;SDS011;37448;51.588;7.248;2024-01-30T02:29:39;12.15;;;6.97;;
51358;SDS011;37448;51.588;7.248;2024-01-30T02:31:39;10.57;;;6.13;;
51358;SDS011;37448;51.588;7.248;2024-01-30T02:33:39;9.88;;;6.32;;
51358;SDS011;37448;51.588;7.248;2024-01-30T02:35:40;11.52;;;6.35;;
51358;SDS011;37448;51.588;7.248;2024-01-30T02:37:40;9.93;;;6.30;;
51358;SDS011;37448;51.588;7.248;2024-01-30T02:39:41;11.73;;;6.97;;
51358;SDS011;37448;51.588;7.248;2024-01-30T02:41:41;10.88;;;6.28;;
51358;SDS011;37448;51.588;7.248;2024-01-30T02:43:41;12.88;;;6.40;;
51358;SDS011;37448;51.588;7.248;2024-01-30T02:45:42;11.27;;;6.95;;
51358;SDS011;37448;51.588;7.248;2024-01-30T02:47:42;11.13;;;6.30;;
51358;SDS011;37448;51.588;7.248;2024-01-30T02:49:43;10.93;;;6.22;;
51358;SDS011;37448;51.588;7.248;2024-01-30T02:51:43;11.93;;;6.57;;
51358;SDS011;37448;51.588;7.248;2024-01-30T02:53:43;9.60;;;5.68;;
51358;SDS011;37448;51.588;7.248;2024-01-30T02:55:44;9.65;;;5.65;;
51358;SDS011;37448;51.588;7.248;2024-01-30T02:57:44;10.43;;;6.50;;
51358;SDS011;37448;51.588;7.248;2024-01-30T02:59:44;10.57;;;6.60;;
51358;SDS011;37448;51.588;7.248;2024-01-30T03:01:45;9.93;;;6.50;;
51358;SDS011;37448;51.588;7.248;2024-01-30T03:03:46;10.45;;;6.30;;
51358;SDS011;37448;51.588;7.248;2024-01-30T03:05:48;10.90;;;6.38;;
51358;SDS011;37448;51.588;7.248;2024-01-30T03:07:48;10.68;;;5.97;;
51358;SDS011;37448;51.588;7.248;2024-01-30T03:09:49;11.98;;;5.90;;
51358;SDS011;37448;51.588;7.248;2024-01-30T03:11:49;10.48;;;5.82;;
51358;SDS011;37448;51.588;7.248;2024-01-30T03:13:50;13.55;;;7.28;;
51358;SDS011;37448;51.588;7.248;2024-01-30T03:15:50;10.40;;;6.38;;
51358;SDS011;37448;51.588;7.248;2024-01-30T03:17:50;11.45;;;6.80;;
51358;SDS011;37448;51.588;7.248;2024-01-30T03:19:51;12.52;;;7.03;;
51358;SDS011;37448;51.588;7.248;2024-01-30T03:21:51;10.05;;;6.53;;
51358;SDS011;37448;51.588;7.248;2024-01-30T03:23:51;9.48;;;6.38;;
51358;SDS011;37448;51.588;7.248;2024-01-30T03:25:52;12.20;;;6.40;;
51358;SDS011;37448;51.588;7.248;2024-01-30T03:27:53;10.38;;;6.55;;
51358;SDS011;37448;51.588;7.248;2024-01-30T03:29:53;12.60;;;6.68;;
51358;SDS011;37448;51.588;7.248;2024-01-30T03:31:53;13.27;;;7.00;;
51358;SDS011;37448;51.588;7.248;2024-01-30T03:33:54;11.18;;;6.18;;
51358;SDS011;37448;51.588;7.248;2024-01-30T03:35:55;10.68;;;6.00;;
51358;SDS011;37448;51.588;7.248;2024-01-30T03:37:56;12.13;;;6.93;;
51358;SDS011;37448;51.588;7.248;2024-01-30T03:39:56;13.95;;;6.25;;
51358;SDS011;37448;51.588;7.248;2024-01-30T03:41:57;11.82;;;6.50;;
51358;SDS011;37448;51.588;7.248;2024-01-30T03:43:57;12.00;;;6.82;;
51358;SDS011;37448;51.588;7.248;2024-01-30T03:45:58;12.82;;;6.55;;
51358;SDS011;37448;51.588;7.248;2024-01-30T03:47:59;11.02;;;6.35;;
51358;SDS011;37448;51.588;7.248;2024-01-30T03:49:59;12.50;;;6.22;;
51358;SDS011;37448;51.588;7.248;2024-01-30T03:52:00;10.70;;;6.03;;
51358;SDS011;37448;51.588;7.248;2024-01-30T03:54:00;12.57;;;6.82;;
51358;SDS011;37448;51.588;7.248;2024-01-30T03:56:00;10.70;;;5.90;;
51358;SDS011;37448;51.588;7.248;2024-01-30T03:58:01;13.52;;;6.47;;
51358;SDS011;37448;51.588;7.248;2024-01-30T04:00:02;11.35;;;6.25;;
51358;SDS011;37448;51.588;7.248;2024-01-30T04:02:12;11.18;;;6.40;;
51358;SDS011;37448;51.588;7.248;2024-01-30T04:04:12;8.55;;;6.03;;
51358;SDS011;37448;51.588;7.248;2024-01-30T04:06:13;10.25;;;5.95;;
51358;SDS011;37448;51.588;7.248;2024-01-30T04:08:13;9.57;;;5.80;;
51358;SDS011;37448;51.588;7.248;2024-01-30T04:10:13;12.27;;;6.60;;
51358;SDS011;37448;51.588;7.248;2024-01-30T04:12:14;9.75;;;6.05;;
51358;SDS011;37448;51.588;7.248;2024-01-30T04:14:14;10.40;;;6.30;;
51358;SDS011;37448;51.588;7.248;2024-01-30T04:16:21;9.98;;;5.85;;
51358;SDS011;37448;51.588;7.248;2024-01-30T04:18:22;8.43;;;5.28;;
51358;SDS011;37448;51.588;7.248;2024-01-30T04:20:22;9.55;;;6.35;;
51358;SDS011;37448;51.588;7.248;2024-01-30T04:22:23;9.77;;;5.55;;
51358;SDS011;37448;51.588;7.248;2024-01-30T04:24:23;9.68;;;5.72;;
51358;SDS011;37448;51.588;7.248;2024-01-30T04:26:23;10.48;;;6.43;;
51358;SDS011;37448;51.588;7.248;2024-01-30T04:28:23;13.07;;;6.47;;
51358;SDS011;37448;51.588;7.248;2024-01-30T04:30:24;10.18;;;5.82;;
51358;SDS011;37448;51.588;7.248;2024-01-30T04:32:24;10.63;;;5.85;;
51358;SDS011;37448;51.588;7.248;2024-01-30T04:34:24;10.77;;;5.43;;
51358;SDS011;37448;51.588;7.248;2024-01-30T04:36:25;9.88;;;5.65;;
51358;SDS011;37448;51.588;7.248;2024-01-30T04:38:25;9.40;;;5.57;;
51358;SDS011;37448;51.588;7.248;2024-01-30T04:40:25;10.90;;;5.50;;
51358;SDS011;37448;51.588;7.248;2024-01-30T04:42:26;10.68;;;5.30;;
51358;SDS011;37448;51.588;7.248;2024-01-30T04:44:26;10.88;;;5.55;;
51358;SDS011;37448;51.588;7.248;2024-01-30T04:46:26;9.95;;;6.05;;
51358;SDS011;37448;51.588;7.248;2024-01-30T04:48:27;11.80;;;5.93;;
51358;SDS011;37448;51.588;7.248;2024-01-30T04:50:27;11.55;;;6.40;;
51358;SDS011;37448;51.588;7.248;2024-01-30T04:52:28;8.73;;;5.72;;
51358;SDS011;37448;51.588;7.248;2024-01-30T04:54:28;10.43;;;6.65;;
51358;SDS011;37448;51.588;7.248;2024-01-30T04:56:28;13.13;;;6.40;;
51358;SDS011;37448;51.588;7.248;2024-01-30T04:58:29;10.40;;;6.13;;
51358;SDS011;37448;51.588;7.248;2024-01-30T05:00:29;12.02;;;6.07;;
51358;SDS011;37448;51.588;7.248;2024-01-30T05:02:30;12.30;;;5.45;;
51358;SDS011;37448;51.588;7.248;2024-01-30T05:04:30;9.45;;;6.28;;
51358;SDS011;37448;51.588;7.248;2024-01-30T05:06:30;11.48;;;6.00;;
51358;SDS011;37448;51.588;7.248;2024-01-30T05:08:31;8.85;;;5.70;;
51358;SDS011;37448;51.588;7.248;2024-01-30T05:10:31;13.10;;;6.00;;
51358;SDS011;37448;51.588;7.248;2024-01-30T05:12:31;10.68;;;5.63;;
51358;SDS011;37448;51.588;7.248;2024-01-30T05:14:32;8.48;;;5.38;;
51358;SDS011;37448;51.588;7.248;2024-01-30T05:16:32;10.48;;;5.82;;
51358;SDS011;37448;51.588;7.248;2024-01-30T05:18:33;9.68;;;6.60;;
51358;SDS011;37448;51.588;7.248;2024-01-30T05:20:33;10.95;;;6.45;;
51358;SDS011;37448;51.588;7.248;2024-01-30T05:22:33;10.48;;;6.38;;
51358;SDS011;37448;51.588;7.248;2024-01-30T05:24:34;11.10;;;6.30;;
51358;SDS011;37448;51.588;7.248;2024-01-30T05:26:34;11.93;;;6.95;;
51358;SDS011;37448;51.588;7.248;2024-01-30T05:28:35;13.38;;;6.88;;
51358;SDS011;37448;51.588;7.248;2024-01-30T05:30:36;14.52;;;7.35;;
51358;SDS011;37448;51.588;7.248;2024-01-30T05:32:36;11.15;;;6.35;;
51358;SDS011;37448;51.588;7.248;2024-01-30T05:34:38;10.45;;;6.88;;
51358;SDS011;37448;51.588;7.248;2024-01-30T05:36:38;11.02;;;6.63;;
51358;SDS011;37448;51.588;7.248;2024-01-30T05:38:39;9.73;;;6.25;;
51358;SDS011;37448;51.588;7.248;2024-01-30T05:40:39;9.88;;;6.35;;
51358;SDS011;37448;51.588;7.248;2024-01-30T05:42:40;11.35;;;6.35;;
51358;SDS011;37448;51.588;7.248;2024-01-30T05:44:40;10.00;;;5.88;;
51358;SDS011;37448;51.588;7.248;2024-01-30T05:46:40;11.13;;;6.70;;
51358;SDS011;37448;51.588;7.248;2024-01-30T05:48:41;13.15;;;6.45;;
51358;SDS011;37448;51.588;7.248;2024-01-30T05:50:42;9.65;;;6.07;;
51358;SDS011;37448;51.588;7.248;2024-01-30T05:52:42;13.75;;;6.15;;
51358;SDS011;37448;51.588;7.248;2024-01-30T05:54:43;13.38;;;6.05;;
51358;SDS011;37448;51.588;7.248;2024-01-30T05:56:43;9.82;;;5.75;;
51358;SDS011;37448;51.588;7.248;2024-01-30T05:58:44;11.07;;;5.65;;
51358;SDS011;37448;51.588;7.248;2024-01-30T06:00:44;8.63;;;5.20;;
51358;SDS011;37448;51.588;7.248;2024-01-30T06:02:44;9.40;;;5.97;;
51358;SDS011;37448;51.588;7.248;2024-01-30T06:04:45;8.80;;;5.35;;
51358;SDS011;37448;51.588;7.248;2024-01-30T06:06:46;12.60;;;5.90;;
51358;SDS011;37448;51.588;7.248;2024-01-30T06:08:46;11.13;;;6.00;;
51358;SDS011;37448;51.588;7.248;2024-01-30T06:10:46;10.85;;;5.97;;
51358;SDS011;37448;51.588;7.248;2024-01-30T06:12:47;11.70;;;6.22;;
51358;SDS011;37448;51.588;7.248;2024-01-30T06:14:48;8.98;;;5.30;;
51358;SDS011;37448;51.588;7.248;2024-01-30T06:16:49;9.15;;;5.78;;
51358;SDS011;37448;51.588;7.248;2024-01-30T06:18:49;11.30;;;5.63;;
51358;SDS011;37448;51.588;7.248;2024-01-30T06:20:49;11.68;;;6.05;;
51358;SDS011;37448;51.588;7.248;2024-01-30T06:22:50;8.85;;;5.43;;
51358;SDS011;37448;51.588;7.248;2024-01-30T06:24:50;8.57;;;5.32;;
51358;SDS011;37448;51.588;7.248;2024-01-30T06:26:50;9.07;;;5.57;;
51358;SDS011;37448;51.588;7.248;2024-01-30T06:28:51;10.65;;;5.40;;
51358;SDS011;37448;51.588;7.248;2024-01-30T06:30:51;15.27;;;6.78;;
51358;SDS011;37448;51.588;7.248;2024-01-30T06:32:52;12.23;;;6.15;;
51358;SDS011;37448;51.588;7.248;2024-01-30T06:34:52;10.55;;;6.25;;
51358;SDS011;37448;51.588;7.248;2024-01-30T06:36:52;10.05;;;5.25;;
51358;SDS011;37448;51.588;7.248;2024-01-30T06:38:53;8.25;;;5.50;;
51358;SDS011;37448;51.588;7.248;2024-01-30T06:40:53;9.10;;;5.43;;
51358;SDS011;37448;51.588;7.248;2024-01-30T06:42:54;8.77;;;4.97;;
51358;SDS011;37448;51.588;7.248;2024-01-30T06:44:54;12.02;;;6.40;;
51358;SDS011;37448;51.588;7.248;2024-01-30T06:46:54;9.02;;;4.93;;
51358;SDS011;37448;51.588;7.248;2024-01-30T06:48:55;10.07;;;5.18;;
51358;SDS011;37448;51.588;7.248;2024-01-30T06:50:56;10.63;;;5.90;;
51358;SDS011;37448;51.588;7.248;2024-01-30T06:52:57;9.10;;;5.57;;
51358;SDS011;37448;51.588;7.248;2024-01-30T06:54:58;9.73;;;5.22;;
51358;SDS011;37448;51.588;7.248;2024-01-30T06:56:58;8.98;;;5.00;;
51358;SDS011;37448;51.588;7.248;2024-01-30T06:59:00;13.30;;;5.93;;
51358;SDS011;37448;51.588;7.248;2024-01-30T07:01:00;10.38;;;5.10;;
51358;SDS011;37448;51.588;7.248;2024-01-30T07:03:00;12.07;;;5.70;;
51358;SDS011;37448;51.588;7.248;2024-01-30T07:05:01;7.07;;;4.90;;
51358;SDS011;37448;51.588;7.248;2024-01-30T07:07:01;11.98;;;6.25;;
51358;SDS011;37448;51.588;7.248;2024-01-30T07:09:02;8.82;;;5.45;;
51358;SDS011;37448;51.588;7.248;2024-01-30T07:11:03;13.45;;;5.90;;
51358;SDS011;37448;51.588;7.248;2024-01-30T07:13:04;9.23;;;5.07;;
51358;SDS011;37448;51.588;7.248;2024-01-30T07:15:05;9.13;;;5.78;;
51358;SDS011;37448;51.588;7.248;2024-01-30T07:17:08;10.52;;;5.18;;
51358;SDS011;37448;51.588;7.248;2024-01-30T07:19:08;11.40;;;5.47;;
51358;SDS011;37448;51.588;7.248;2024-01-30T07:21:09;8.82;;;5.75;;
51358;SDS011;37448;51.588;7.248;2024-01-30T07:23:10;10.40;;;5.57;;
51358;SDS011;37448;51.588;7.248;2024-01-30T07:25:14;9.73;;;5.78;;
51358;SDS011;37448;51.588;7.248;2024-01-30T07:27:15;7.72;;;5.35;;
51358;SDS011;37448;51.588;7.248;2024-01-30T07:29:17;7.70;;;4.47;;
51358;SDS011;37448;51.588;7.248;2024-01-30T07:31:18;8.27;;;5.60;;
51358;SDS011;37448;51.588;7.248;2024-01-30T07:33:20;8.80;;;5.13;;
51358;SDS011;37448;51.588;7.248;2024-01-30T07:35:21;6.00;;;4.90;;
51358;SDS011;37448;51.588;7.248;2024-01-30T07:37:21;7.82;;;5.07;;
51358;SDS011;37448;51.588;7.248;2024-01-30T07:39:21;8.35;;;5.50;;
51358;SDS011;37448;51.588;7.248;2024-01-30T07:41:22;11.52;;;5.45;;
51358;SDS011;37448;51.588;7.248;2024-01-30T07:43:23;10.57;;;4.82;;
51358;SDS011;37448;51.588;7.248;2024-01-30T07:45:23;7.75;;;5.05;;
51358;SDS011;37448;51.588;7.248;2024-01-30T07:47:24;8.55;;;4.40;;
51358;SDS011;37448;51.588;7.248;2024-01-30T07:49:25;9.35;;;5.35;;
51358;SDS011;37448;51.588;7.248;2024-01-30T07:51:25;10.55;;;5.40;;
51358;SDS011;37448;51.588;7.248;2024-01-30T07:53:26;12.45;;;5.72;;
51358;SDS011;37448;51.588;7.248;2024-01-30T07:55:26;9.73;;;5.32;;
51358;SDS011;37448;51.588;7.248;2024-01-30T07:57:31;7.32;;;5.47;;
51358;SDS011;37448;51.588;7.248;2024-01-30T07:59:32;10.35;;;5.80;;
51358;SDS011;37448;51.588;7.248;2024-01-30T08:01:32;11.40;;;5.60;;
51358;SDS011;37448;51.588;7.248;2024-01-30T08:03:33;9.93;;;5.97;;
51358;SDS011;37448;51.588;7.248;2024-01-30T08:05:34;11.82;;;5.88;;
51358;SDS011;37448;51.588;7.248;2024-01-30T08:07:34;9.70;;;5.88;;
51358;SDS011;37448;51.588;7.248;2024-01-30T08:09:35;10.77;;;5.72;;
51358;SDS011;37448;51.588;7.248;2024-01-30T08:11:35;11.65;;;6.50;;
51358;SDS011;37448;51.588;7.248;2024-01-30T08:13:36;9.05;;;5.47;;
51358;SDS011;37448;51.588;7.248;2024-01-30T08:15:36;10.85;;;6.97;;
51358;SDS011;37448;51.588;7.248;2024-01-30T08:17:36;14.27;;;6.88;;
51358;SDS011;37448;51.588;7.248;2024-01-30T08:19:37;10.80;;;5.95;;
51358;SDS011;37448;51.588;7.248;2024-01-30T08:21:37;9.45;;;7.18;;
51358;SDS011;37448;51.588;7.248;2024-01-30T08:23:38;13.95;;;5.70;;
51358;SDS011;37448;51.588;7.248;2024-01-30T08:25:39;10.63;;;6.00;;
51358;SDS011;37448;51.588;7.248;2024-01-30T08:27:40;11.55;;;6.25;;
51358;SDS011;37448;51.588;7.248;2024-01-30T08:29:41;8.93;;;5.38;;
51358;SDS011;37448;51.588;7.248;2024-01-30T08:31:41;10.75;;;5.57;;
51358;SDS011;37448;51.588;7.248;2024-01-30T08:33:42;9.35;;;5.55;;
51358;SDS011;37448;51.588;7.248;2024-01-30T08:35:42;10.77;;;5.25;;
51358;SDS011;37448;51.588;7.248;2024-01-30T08:37:43;13.02;;;5.78;;
51358;SDS011;37448;51.588;7.248;2024-01-30T08:39:43;10.75;;;5.28;;
51358;SDS011;37448;51.588;7.248;2024-01-30T08:41:44;10.32;;;5.93;;
51358;SDS011;37448;51.588;7.248;2024-01-30T08:43:44;9.25;;;5.40;;
51358;SDS011;37448;51.588;7.248;2024-01-30T08:45:45;8.75;;;5.00;;
51358;SDS011;37448;51.588;7.248;2024-01-30T08:47:45;8.85;;;5.18;;
51358;SDS011;37448;51.588;7.248;2024-01-30T08:49:45;10.80;;;5.55;;
51358;SDS011;37448;51.588;7.248;2024-01-30T08:51:46;9.50;;;5.78;;
51358;SDS011;37448;51.588;7.248;2024-01-30T08:53:47;8.57;;;6.05;;
51358;SDS011;37448;51.588;7.248;2024-01-30T08:55:47;8.75;;;5.72;;
51358;SDS011;37448;51.588;7.248;2024-01-30T08:57:48;8.98;;;5.88;;
51358;SDS011;37448;51.588;7.248;2024-01-30T08:59:48;8.35;;;6.07;;
51358;SDS011;37448;51.588;7.248;2024-01-30T09:01:49;10.43;;;6.22;;
51358;SDS011;37448;51.588;7.248;2024-01-30T09:03:49;9.20;;;5.70;;
51358;SDS011;37448;51.588;7.248;2024-01-30T09:05:49;10.73;;;5.78;;
51358;SDS011;37448;51.588;7.248;2024-01-30T09:07:50;10.52;;;5.28;;
51358;SDS011;37448;51.588;7.248;2024-01-30T09:09:50;7.93;;;5.30;;
51358;SDS011;37448;51.588;7.248;2024-01-30T09:11:51;8.98;;;5.03;;
51358;SDS011;37448;51.588;7.248;2024-01-30T09:13:51;11.20;;;5.82;;
51358;SDS011;37448;51.588;7.248;2024-01-30T09:15:52;9.38;;;6.07;;
51358;SDS011;37448;51.588;7.248;2024-01-30T09:17:52;8.95;;;5.10;;
51358;SDS011;37448;51.588;7.248;2024-01-30T09:19:53;8.88;;;5.43;;
51358;SDS011;37448;51.588;7.248;2024-01-30T09:21:53;8.88;;;5.88;;
51358;SDS011;37448;51.588;7.248;2024-01-30T09:23:54;8.57;;;5.57;;
51358;SDS011;37448;51.588;7.248;2024-01-30T09:25:55;9.32;;;5.28;;
51358;SDS011;37448;51.588;7.248;2024-01-30T09:27:55;12.55;;;5.47;;
51358;SDS011;37448;51.588;7.248;2024-01-30T09:29:56;8.57;;;5.82;;
51358;SDS011;37448;51.588;7.248;2024-01-30T09:31:56;9.18;;;6.18;;
51358;SDS011;37448;51.588;7.248;2024-01-30T09:33:56;9.52;;;5.82;;
51358;SDS011;37448;51.588;7.248;2024-01-30T09:35:57;10.25;;;6.18;;
51358;SDS011;37448;51.588;7.248;2024-01-30T09:37:57;8.88;;;5.28;;
51358;SDS011;37448;51.588;7.248;2024-01-30T09:39:58;8.07;;;5.13;;
51358;SDS011;37448;51.588;7.248;2024-01-30T09:44:37;11.05;;;4.63;;
51358;SDS011;37448;51.588;7.248;2024-01-30T09:46:38;9.80;;;4.82;;
51358;SDS011;37448;51.588;7.248;2024-01-30T09:48:41;8.80;;;4.85;;
51358;SDS011;37448;51.588;7.248;2024-01-30T09:50:43;7.13;;;4.45;;
51358;SDS011;37448;51.588;7.248;2024-01-30T09:52:44;7.70;;;4.05;;
51358;SDS011;37448;51.588;7.248;2024-01-30T09:54:45;7.97;;;4.63;;
51358;SDS011;37448;51.588;7.248;2024-01-30T09:56:49;9.88;;;4.38;;
51358;SDS011;37448;51.588;7.248;2024-01-30T09:58:49;6.15;;;4.28;;
51358;SDS011;37448;51.588;7.248;2024-01-30T10:00:50;9.77;;;4.70;;
51358;SDS011;37448;51.588;7.248;2024-01-30T10:02:50;6.00;;;4.20;;
51358;SDS011;37448;51.588;7.248;2024-01-30T10:04:51;7.95;;;4.68;;
51358;SDS011;37448;51.588;7.248;2024-01-30T10:06:52;7.85;;;4.53;;
51358;SDS011;37448;51.588;7.248;2024-01-30T10:08:52;8.80;;;4.70;;
51358;SDS011;37448;51.588;7.248;2024-01-30T10:10:53;6.93;;;4.50;;
51358;SDS011;37448;51.588;7.248;2024-01-30T10:12:53;6.72;;;4.13;;
51358;SDS011;37448;51.588;7.248;2024-01-30T10:14:55;8.57;;;4.55;;
51358;SDS011;37448;51.588;7.248;2024-01-30T10:16:57;7.30;;;4.78;;
51358;SDS011;37448;51.588;7.248;2024-01-30T10:18:57;10.30;;;4.28;;
51358;SDS011;37448;51.588;7.248;2024-01-30T10:20:58;8.07;;;4.47;;
51358;SDS011;37448;51.588;7.248;2024-01-30T10:22:59;8.77;;;4.80;;
51358;SDS011;37448;51.588;7.248;2024-01-30T10:25:00;8.02;;;4.80;;
51358;SDS011;37448;51.588;7.248;2024-01-30T10:27:00;5.35;;;3.45;;
51358;SDS011;37448;51.588;7.248;2024-01-30T10:29:01;8.98;;;4.13;;
51358;SDS011;37448;51.588;7.248;2024-01-30T10:31:02;8.55;;;4.38;;
51358;SDS011;37448;51.588;7.248;2024-01-30T10:33:06;7.05;;;4.10;;
51358;SDS011;37448;51.588;7.248;2024-01-30T10:35:06;7.15;;;4.10;;
51358;SDS011;37448;51.588;7.248;2024-01-30T10:37:07;6.80;;;4.68;;
51358;SDS011;37448;51.588;7.248;2024-01-30T10:39:12;10.68;;;4.70;;
51358;SDS011;37448;51.588;7.248;2024-01-30T10:41:18;7.10;;;4.25;;
51358;SDS011;37448;51.588;7.248;2024-01-30T10:43:31;8.57;;;4.07;;
51358;SDS011;37448;51.588;7.248;2024-01-30T10:45:35;7.70;;;4.10;;
51358;SDS011;37448;51.588;7.248;2024-01-30T10:47:40;5.32;;;3.72;;
51358;SDS011;37448;51.588;7.248;2024-01-30T10:49:43;6.03;;;3.65;;
51358;SDS011;37448;51.588;7.248;2024-01-30T10:51:46;6.53;;;3.65;;
51358;SDS011;37448;51.588;7.248;2024-01-30T10:53:49;8.77;;;4.43;;
51358;SDS011;37448;51.588;7.248;2024-01-30T10:55:51;6.85;;;3.88;;
51358;SDS011;37448;51.588;7.248;2024-01-30T10:57:52;5.80;;;3.33;;
51358;SDS011;37448;51.588;7.248;2024-01-30T10:59:55;10.50;;;4.07;;
51358;SDS011;37448;51.588;7.248;2024-01-30T11:01:58;7.32;;;3.75;;
51358;SDS011;37448;51.588;7.248;2024-01-30T11:03:59;9.95;;;4.22;;
51358;SDS011;37448;51.588;7.248;2024-01-30T11:06:00;6.60;;;3.88;;
51358;SDS011;37448;51.588;7.248;2024-01-30T11:08:11;7.80;;;4.00;;
51358;SDS011;37448;51.588;7.248;2024-01-30T11:10:14;9.07;;;4.05;;
51358;SDS011;37448;51.588;7.248;2024-01-30T11:12:15;10.80;;;4.28;;
51358;SDS011;37448;51.588;7.248;2024-01-30T11:14:15;6.63;;;4.13;;
51358;SDS011;37448;51.588;7.248;2024-01-30T11:16:15;9.38;;;4.50;;
51358;SDS011;37448;51.588;7.248;2024-01-30T11:18:25;9.65;;;3.75;;
51358;SDS011;37448;51.588;7.248;2024-01-30T11:20:32;7.68;;;4.10;;
51358;SDS011;37448;51.588;7.248;2024-01-30T11:24:40;7.45;;;4.13;;
51358;SDS011;37448;51.588;7.248;2024-01-30T11:26:43;6.10;;;4.05;;
51358;SDS011;37448;51.588;7.248;2024-01-30T11:28:44;6.10;;;3.92;;
51358;SDS011;37448;51.588;7.248;2024-01-30T11:31:02;8.32;;;3.75;;
51358;SDS011;37448;51.588;7.248;2024-01-30T11:33:10;7.32;;;3.75;;
51358;SDS011;37448;51.588;7.248;2024-01-30T11:35:12;6.78;;;4.00;;
51358;SDS011;37448;51.588;7.248;2024-01-30T11:37:12;7.82;;;3.58;;
51358;SDS011;37448;51.588;7.248;2024-01-30T11:39:15;7.75;;;3.88;;
51358;SDS011;37448;51.588;7.248;2024-01-30T11:41:17;8.80;;;3.95;;
51358;SDS011;37448;51.588;7.248;2024-01-30T11:43:18;7.13;;;3.50;;
51358;SDS011;37448;51.588;7.248;2024-01-30T11:45:19;5.93;;;3.92;;
51358;SDS011;37448;51.588;7.248;2024-01-30T11:47:19;7.80;;;3.80;;
51358;SDS011;37448;51.588;7.248;2024-01-30T11:49:19;6.07;;;3.58;;
51358;SDS011;37448;51.588;7.248;2024-01-30T11:51:20;6.75;;;3.92;;
51358;SDS011;37448;51.588;7.248;2024-01-30T11:53:22;9.13;;;4.35;;
51358;SDS011;37448;51.588;7.248;2024-01-30T11:55:23;6.70;;;4.40;;
51358;SDS011;37448;51.588;7.248;2024-01-30T11:57:24;9.15;;;4.28;;
51358;SDS011;37448;51.588;7.248;2024-01-30T11:59:24;10.48;;;4.47;;
51358;SDS011;37448;51.588;7.248;2024-01-30T12:01:24;6.72;;;4.00;;
51358;SDS011;37448;51.588;7.248;2024-01-30T12:03:25;9.57;;;4.18;;
51358;SDS011;37448;51.588;7.248;2024-01-30T12:05:25;10.75;;;3.95;;
51358;SDS011;37448;51.588;7.248;2024-01-30T12:07:27;7.25;;;4.50;;